Time;durP1;ratioP1;P1;durP2;ratioP2;P2;SDS_P1;SDS_P2;PMS_P1;PMS_P2;Temp;Humidity;BMP_temperature;BMP_pressure;BME280_temperature;BME280_humidity;BME280_pressure;Samples;Min_cycle;Max_cycle;Signal;HPM_P1;HPM_P2
2021/09/01 00:01:18;;;;;;;;;;;;;;;11.64;86.95;97329.84;5054869;28;19964;-77
2021/09/01 00:03:44;;;;;;;;;;;;;;;11.63;87.33;97327.44;5053017;28;20047;-76
2021/09/01 00:06:10;;;;;;;;;;;;;;;11.63;87.16;97332.69;5054865;28;20403;-76
2021/09/01 00:08:36;;;;;;;;;;;;;;;11.60;86.97;97326.00;5054665;28;20045;-77
2021/09/01 00:11:02;;;;;;;;;;;;;;;11.58;87.05;97328.03;5054468;28;20425;-77
2021/09/01 00:13:28;;;;;;;;;;;;;;;11.57;86.97;97329.88;5054993;28;19963;-77
2021/09/01 00:15:54;;;;;;;;;;;;;;;11.54;86.95;97325.00;5054804;28;19960;-77
2021/09/01 00:18:20;;;;;;;;;;;;;;;11.52;86.23;97323.59;5054628;28;19947;-78
2021/09/01 00:20:46;;;;;;;;;;;;;;;11.51;86.25;97322.00;5054447;28;19992;-78
2021/09/01 00:23:14;;;;;;;;;;;;;;;11.49;85.96;97330.06;5054741;28;19985;-77
2021/09/01 00:25:41;;;;;;;;;;;;;;;11.47;85.68;97321.56;5054439;28;19966;-77
2021/09/01 00:28:07;;;;;;;;;;;;;;;11.45;85.62;97326.22;5054349;28;19959;-79
2021/09/01 00:30:33;;;;;;;;;;;;;;;11.42;85.64;97325.81;5053540;28;19976;-78
2021/09/01 00:32:59;;;;;;;;;;;;;;;11.41;86.13;97324.19;5053220;28;19960;-77
2021/09/01 00:35:25;;;;;;;;;;;;;;;11.37;86.07;97326.41;5054365;28;19960;-78
2021/09/01 00:37:51;;;;;;;;;;;;;;;11.35;86.31;97331.06;5053611;28;20406;-78
2021/09/01 00:40:17;;;;;;;;;;;;;;;11.33;85.96;97325.19;5054231;28;20029;-77
2021/09/01 00:42:42;;;;;;;;;;;;;;;11.27;86.43;97326.78;5054187;28;19980;-78
2021/09/01 00:45:09;;;;;;;;;;;;;;;11.26;86.56;97321.75;5053329;28;19956;-78
2021/09/01 00:47:36;;;;;;;;;;;;;;;11.24;86.66;97326.41;5053360;28;19950;-77
2021/09/01 00:50:07;;;;;;;;;;;;;;;11.22;86.60;97323.97;5054007;28;19949;-77
2021/09/01 00:52:33;;;;;;;;;;;;;;;11.22;86.75;97317.94;5053617;28;20338;-77
2021/09/01 00:55:01;;;;;;;;;;;;;;;11.20;86.43;97312.06;5054152;28;19962;-77
2021/09/01 00:57:27;;;;;;;;;;;;;;;11.18;86.54;97318.31;5053897;28;19965;-78
2021/09/01 00:59:53;;;;;;;;;;;;;;;11.17;86.60;97318.50;5054142;28;20001;-77
2021/09/01 01:02:21;;;;;;;;;;;;;;;11.16;86.33;97309.03;5053759;28;19972;-77
2021/09/01 01:04:47;;;;;;;;;;;;;;;11.14;86.19;97316.28;5053839;28;20330;-77
2021/09/01 01:07:12;;;;;;;;;;;;;;;11.12;86.16;97315.69;5053572;28;19967;-77
2021/09/01 01:09:39;;;;;;;;;;;;;;;11.09;85.92;97306.38;5053925;28;19966;-77
2021/09/01 01:12:05;;;;;;;;;;;;;;;11.06;85.74;97312.03;5053552;28;19971;-77
2021/09/01 01:14:38;;;;;;;;;;;;;;;11.05;86.16;97313.03;5053812;28;19957;-77
2021/09/01 01:17:05;;;;;;;;;;;;;;;11.04;86.29;97316.66;5053812;28;20063;-77
2021/09/01 01:19:31;;;;;;;;;;;;;;;11.03;86.72;97309.81;5053559;28;20302;-77
2021/09/01 01:21:57;;;;;;;;;;;;;;;11.04;87.94;97321.91;5053125;28;20042;-77
2021/09/01 01:24:24;;;;;;;;;;;;;;;11.05;89.14;97317.50;5053862;28;20338;-78
2021/09/01 01:26:50;;;;;;;;;;;;;;;11.07;90.63;97326.78;5053386;28;20466;-77
2021/09/01 01:29:16;;;;;;;;;;;;;;;11.11;91.92;97328.00;5053693;28;20048;-77
2021/09/01 01:31:43;;;;;;;;;;;;;;;11.13;92.63;97330.44;5052889;28;19951;-77
2021/09/01 01:34:13;;;;;;;;;;;;;;;11.17;92.89;97323.75;5053471;28;19950;-78
2021/09/01 01:36:39;;;;;;;;;;;;;;;11.21;93.02;97329.41;5052609;28;19951;-77
2021/09/01 01:39:05;;;;;;;;;;;;;;;11.24;92.79;97329.03;5034832;28;19965;-77
2021/09/01 01:41:31;;;;;;;;;;;;;;;11.23;91.59;97330.81;5054646;28;20320;-80
2021/09/01 01:43:57;;;;;;;;;;;;;;;11.22;90.92;97328.44;5057775;28;19955;-78
2021/09/01 01:46:22;;;;;;;;;;;;;;;11.19;89.67;97332.22;5057422;28;19994;-79
2021/09/01 01:48:49;;;;;;;;;;;;;;;11.16;89.02;97333.44;5057401;28;19962;-79
2021/09/01 01:51:16;;;;;;;;;;;;;;;11.15;88.53;97328.41;5056639;28;19967;-78
2021/09/01 01:53:42;;;;;;;;;;;;;;;11.12;88.62;97328.81;5057876;28;19971;-78
2021/09/01 01:56:09;;;;;;;;;;;;;;;11.10;88.02;97328.19;5057412;28;20021;-78
2021/09/01 01:58:35;;;;;;;;;;;;;;;11.08;87.99;97328.38;5056141;28;20386;-78
2021/09/01 02:01:01;;;;;;;;;;;;;;;11.06;87.61;97321.72;5057187;28;20445;-78
2021/09/01 02:03:27;;;;;;;;;;;;;;;11.02;87.61;97321.31;5055842;28;19968;-78
2021/09/01 02:05:53;;;;;;;;;;;;;;;11.00;88.02;97320.69;5057197;28;20050;-78
2021/09/01 02:08:19;;;;;;;;;;;;;;;10.96;87.81;97322.91;5057246;28;19967;-78
2021/09/01 02:10:45;;;;;;;;;;;;;;;10.95;88.17;97318.66;5057092;28;20013;-78
2021/09/01 02:13:11;;;;;;;;;;;;;;;10.93;88.20;97328.56;5056988;28;19962;-78
2021/09/01 02:15:37;;;;;;;;;;;;;;;10.91;88.10;97314.00;5057025;28;19955;-78
2021/09/01 02:18:03;;;;;;;;;;;;;;;10.90;88.23;97323.72;5055514;28;19998;-77
2021/09/01 02:20:29;;;;;;;;;;;;;;;10.90;88.25;97317.66;5057290;28;19962;-76
2021/09/01 02:22:55;;;;;;;;;;;;;;;10.89;88.54;97323.91;5056592;28;20343;-77
2021/09/01 02:25:22;;;;;;;;;;;;;;;10.87;88.71;97318.03;5057075;28;19955;-76
2021/09/01 02:27:48;;;;;;;;;;;;;;;10.87;88.71;97312.78;5056886;28;19963;-77
2021/09/01 02:30:14;;;;;;;;;;;;;;;10.86;88.98;97312.00;5056689;28;19961;-76
2021/09/01 02:32:40;;;;;;;;;;;;;;;10.86;89.24;97313.81;5056756;28;19963;-76
2021/09/01 02:35:06;;;;;;;;;;;;;;;10.87;89.36;97323.28;5057066;28;20432;-76
2021/09/01 02:37:32;;;;;;;;;;;;;;;10.85;89.32;97315.59;5056734;28;19966;-77
2021/09/01 02:39:58;;;;;;;;;;;;;;;10.85;90.14;97317.44;5046423;28;19961;-76
2021/09/01 02:42:24;;;;;;;;;;;;;;;10.84;90.34;97327.13;5056315;28;20090;-76
2021/09/01 02:44:50;;;;;;;;;;;;;;;10.85;90.04;97325.31;5056306;28;20000;-76
2021/09/01 02:47:16;;;;;;;;;;;;;;;10.85;90.11;97317.44;5056385;28;20008;-76
2021/09/01 02:49:41;;;;;;;;;;;;;;;10.86;90.17;97324.31;5056411;28;20326;-76
2021/09/01 02:52:07;;;;;;;;;;;;;;;10.87;90.20;97320.66;5056229;28;19997;-76
2021/09/01 02:54:33;;;;;;;;;;;;;;;10.88;90.34;97322.31;5055319;28;20374;-76
2021/09/01 02:56:59;;;;;;;;;;;;;;;10.90;90.87;97320.28;5056179;28;20427;-76
2021/09/01 02:59:25;;;;;;;;;;;;;;;10.87;91.61;97324.09;5055997;28;19969;-76
2021/09/01 03:01:51;;;;;;;;;;;;;;;10.89;90.44;97329.94;5056014;28;19965;-76
2021/09/01 03:04:17;;;;;;;;;;;;;;;10.89;90.39;97324.69;5056121;28;19966;-76
2021/09/01 03:06:43;;;;;;;;;;;;;;;10.90;90.64;97328.16;5055482;28;20070;-76
2021/09/01 03:09:09;;;;;;;;;;;;;;;10.87;90.59;97324.09;5055659;28;19949;-76
2021/09/01 03:11:35;;;;;;;;;;;;;;;10.87;90.30;97331.16;5055737;28;20055;-76
2021/09/01 03:14:00;;;;;;;;;;;;;;;10.86;89.99;97324.31;5055769;28;19999;-77
2021/09/01 03:16:26;;;;;;;;;;;;;;;10.84;89.13;97327.13;5053528;28;20447;-76
2021/09/01 03:18:53;;;;;;;;;;;;;;;10.82;88.53;97323.09;5055464;28;19957;-76
2021/09/01 03:21:19;;;;;;;;;;;;;;;10.80;88.26;97325.09;5055378;28;20009;-77
2021/09/01 03:23:45;;;;;;;;;;;;;;;10.77;88.63;97331.53;5055299;28;19975;-77
2021/09/01 03:26:11;;;;;;;;;;;;;;;10.71;88.30;97330.53;5055707;28;19963;-77
2021/09/01 03:28:37;;;;;;;;;;;;;;;10.67;88.74;97334.53;5055490;28;20420;-76
2021/09/01 03:31:03;;;;;;;;;;;;;;;10.64;88.30;97334.13;5055479;28;20431;-76
2021/09/01 03:33:28;;;;;;;;;;;;;;;10.61;88.31;97335.31;5054827;28;20053;-77
2021/09/01 03:35:54;;;;;;;;;;;;;;;10.58;88.15;97340.94;5055895;28;19956;-76
2021/09/01 03:38:20;;;;;;;;;;;;;;;10.56;87.99;97337.72;5054174;28;19985;-78
2021/09/01 03:40:46;;;;;;;;;;;;;;;10.53;88.38;97333.66;5055344;28;19997;-78
2021/09/01 03:43:12;;;;;;;;;;;;;;;10.50;88.49;97328.81;5055390;28;20013;-78
2021/09/01 03:45:38;;;;;;;;;;;;;;;10.50;88.71;97334.06;5055060;28;20005;-78
2021/09/01 03:48:04;;;;;;;;;;;;;;;10.50;88.67;97338.50;5055821;28;19954;-78
2021/09/01 03:50:31;;;;;;;;;;;;;;;10.50;88.81;97335.91;5055252;28;19956;-78
2021/09/01 03:52:56;;;;;;;;;;;;;;;10.50;89.03;97341.94;5055339;28;19955;-78
2021/09/01 03:55:22;;;;;;;;;;;;;;;10.50;89.09;97343.75;5055094;28;19973;-78
2021/09/01 03:57:48;;;;;;;;;;;;;;;10.50;89.15;97347.19;5054950;28;20379;-78
2021/09/01 04:00:14;;;;;;;;;;;;;;;10.49;89.15;97345.56;5054359;28;20391;-78
2021/09/01 04:02:40;;;;;;;;;;;;;;;10.49;89.41;97350.00;5055091;28;19982;-78
2021/09/01 04:05:07;;;;;;;;;;;;;;;10.47;89.55;97358.03;5054587;28;19964;-78
2021/09/01 04:07:32;;;;;;;;;;;;;;;10.48;89.40;97353.63;5054960;28;20334;-78
2021/09/01 04:09:58;;;;;;;;;;;;;;;10.47;89.50;97359.88;5054811;28;20014;-78
2021/09/01 04:12:24;;;;;;;;;;;;;;;10.47;89.67;97362.50;5054524;28;20386;-77
2021/09/01 04:14:50;;;;;;;;;;;;;;;10.45;89.31;97356.63;5055087;28;20006;-78
2021/09/01 04:17:16;;;;;;;;;;;;;;;10.44;89.39;97360.28;5054941;28;19960;-76
2021/09/01 04:19:42;;;;;;;;;;;;;;;10.42;89.26;97360.47;5054375;28;20378;-76
2021/09/01 04:22:08;;;;;;;;;;;;;;;10.39;88.98;97347.72;5054258;28;19986;-77
2021/09/01 04:24:34;;;;;;;;;;;;;;;10.38;89.04;97350.56;5054345;28;19963;-77
2021/09/01 04:26:59;;;;;;;;;;;;;;;10.34;88.35;97345.69;5052613;28;19966;-76
2021/09/01 04:29:25;;;;;;;;;;;;;;;10.31;87.95;97350.50;5053051;28;19989;-77
2021/09/01 04:31:51;;;;;;;;;;;;;;;10.28;87.79;97358.72;5054574;28;20004;-77
2021/09/01 04:34:17;;;;;;;;;;;;;;;10.25;87.69;97349.44;5054332;28;19969;-77
2021/09/01 04:36:43;;;;;;;;;;;;;;;10.23;87.26;97348.03;5054602;28;19958;-76
2021/09/01 04:39:09;;;;;;;;;;;;;;;10.20;87.41;97338.72;5054397;28;20037;-77
2021/09/01 04:41:35;;;;;;;;;;;;;;;10.19;87.10;97346.78;5053798;28;19962;-75
2021/09/01 04:44:01;;;;;;;;;;;;;;;10.16;87.04;97348.78;5054049;28;19972;-76
2021/09/01 04:46:26;;;;;;;;;;;;;;;10.15;86.82;97355.03;5054196;28;19960;-76
2021/09/01 04:48:52;;;;;;;;;;;;;;;10.13;86.31;97354.41;5053119;28;19959;-76
2021/09/01 04:51:18;;;;;;;;;;;;;;;10.11;86.58;97359.03;5054082;28;19960;-77
2021/09/01 04:53:44;;;;;;;;;;;;;;;10.09;86.74;97350.56;5054282;28;19959;-77
2021/09/01 04:56:10;;;;;;;;;;;;;;;10.08;86.78;97354.19;5053948;28;19962;-75
2021/09/01 04:58:36;;;;;;;;;;;;;;;10.06;86.95;97353.56;5053998;28;19963;-76
2021/09/01 05:01:02;;;;;;;;;;;;;;;10.01;87.21;97349.91;5054053;28;19950;-76
2021/09/01 05:03:28;;;;;;;;;;;;;;;9.97;87.01;97349.47;5053929;28;20003;-76
2021/09/01 05:05:54;;;;;;;;;;;;;;;9.91;87.26;97351.06;5053742;28;19955;-76
2021/09/01 05:08:20;;;;;;;;;;;;;;;9.88;87.56;97355.84;5053563;28;19970;-76
2021/09/01 05:10:46;;;;;;;;;;;;;;;9.84;87.69;97354.63;5053617;28;20034;-76
2021/09/01 05:13:11;;;;;;;;;;;;;;;9.80;87.42;97351.56;5053723;28;19959;-76
2021/09/01 05:15:38;;;;;;;;;;;;;;;9.82;87.42;97354.00;5052744;28;19956;-76
2021/09/01 05:18:04;;;;;;;;;;;;;;;9.85;87.24;97357.06;5053743;28;19968;-76
2021/09/01 05:20:37;;;;;;;;;;;;;;;9.92;87.18;97359.72;5044856;28;19963;-76
2021/09/01 05:23:05;;;;;;;;;;;;;;;10.00;86.84;97362.19;5053855;28;19994;-75
2021/09/01 05:25:36;;;;;;;;;;;;;;;10.08;86.71;97363.84;5053272;28;19960;-75
2021/09/01 05:28:03;;;;;;;;;;;;;;;10.18;86.44;97368.75;5053830;28;20020;-75
2021/09/01 05:30:32;;;;;;;;;;;;;;;10.33;86.27;97377.34;5053511;28;19960;-75
2021/09/01 05:33:00;;;;;;;;;;;;;;;10.59;85.81;97373.25;5053431;28;19955;-75
2021/09/01 05:35:26;;;;;;;;;;;;;;;10.97;85.04;97366.53;5053309;28;20310;-75
2021/09/01 05:37:54;;;;;;;;;;;;;;;11.46;84.07;97359.34;5053479;28;19966;-75
2021/09/01 05:40:20;;;;;;;;;;;;;;;12.02;82.14;97362.63;5053352;28;20423;-76
2021/09/01 05:42:46;;;;;;;;;;;;;;;12.53;80.97;97365.31;5052700;28;19974;-76
2021/09/01 05:45:12;;;;;;;;;;;;;;;13.02;79.44;97359.66;5053700;28;20391;-75
2021/09/01 05:47:38;;;;;;;;;;;;;;;13.37;77.63;97363.53;5053396;28;19991;-76
2021/09/01 05:50:05;;;;;;;;;;;;;;;13.57;76.52;97367.88;5053299;28;19982;-76
2021/09/01 05:52:31;;;;;;;;;;;;;;;13.84;75.86;97367.66;5053619;28;19978;-75
2021/09/01 05:55:00;;;;;;;;;;;;;;;14.12;75.90;97373.28;5053323;28;19966;-76
2021/09/01 05:57:26;;;;;;;;;;;;;;;14.33;73.92;97373.91;5053413;28;19963;-75
2021/09/01 06:00:03;;;;;;;;;;;;;;;14.36;72.73;97376.91;5053281;28;20473;-75
2021/09/01 06:02:29;;;;;;;;;;;;;;;14.27;72.63;97374.78;5053178;28;19960;-76
2021/09/01 06:04:57;;;;;;;;;;;;;;;14.21;72.95;97382.56;5053150;28;20407;-76
2021/09/01 06:07:25;;;;;;;;;;;;;;;14.22;72.85;97380.72;5053565;28;20017;-75
2021/09/01 06:09:52;;;;;;;;;;;;;;;14.23;73.17;97376.22;5052961;28;19964;-76
2021/09/01 06:12:20;;;;;;;;;;;;;;;14.17;71.24;97372.63;5053038;28;19958;-76
2021/09/01 06:14:46;;;;;;;;;;;;;;;13.96;73.33;97385.22;5053317;28;20332;-76
2021/09/01 06:17:13;;;;;;;;;;;;;;;13.49;73.46;97392.66;5053111;28;20399;-76
2021/09/01 06:19:39;;;;;;;;;;;;;;;13.19;74.15;97387.13;5052908;28;19957;-76
2021/09/01 06:22:05;;;;;;;;;;;;;;;13.02;75.03;97391.25;5052858;28;20073;-76
2021/09/01 06:24:32;;;;;;;;;;;;;;;12.98;75.75;97394.31;5053375;28;19997;-76
2021/09/01 06:26:59;;;;;;;;;;;;;;;12.96;75.95;97396.34;5053458;28;19980;-76
2021/09/01 06:29:24;;;;;;;;;;;;;;;12.79;76.76;97401.28;5055783;28;19969;-76
2021/09/01 06:31:50;;;;;;;;;;;;;;;12.47;77.01;97402.19;5056718;28;19951;-77
2021/09/01 06:34:16;;;;;;;;;;;;;;;12.13;78.77;97406.69;5056594;28;20409;-77
2021/09/01 06:36:42;;;;;;;;;;;;;;;11.89;80.41;97405.50;5056561;28;19960;-75
2021/09/01 06:39:08;;;;;;;;;;;;;;;11.82;81.38;97400.19;5056512;28;19960;-77
2021/09/01 06:41:34;;;;;;;;;;;;;;;11.78;82.33;97410.31;5044094;28;20026;-76
2021/09/01 06:44:00;;;;;;;;;;;;;;;11.76;82.41;97407.06;5056554;28;19990;-76
2021/09/01 06:46:26;;;;;;;;;;;;;;;11.68;83.19;97407.28;5056519;28;19961;-76
2021/09/01 06:48:52;;;;;;;;;;;;;;;11.53;83.89;97399.56;5056148;28;20057;-76
2021/09/01 06:51:18;;;;;;;;;;;;;;;11.53;84.12;97404.84;5054770;28;19967;-76
2021/09/01 06:53:43;;;;;;;;;;;;;;;11.65;84.67;97407.66;5056773;28;19965;-77
2021/09/01 06:56:09;;;;;;;;;;;;;;;11.72;84.64;97412.94;5056229;28;20431;-77
2021/09/01 06:58:36;;;;;;;;;;;;;;;11.78;84.45;97414.78;5055182;28;19965;-76
2021/09/01 07:01:02;;;;;;;;;;;;;;;11.91;84.57;97414.78;5056145;28;19970;-77
2021/09/01 07:03:28;;;;;;;;;;;;;;;12.09;84.31;97410.72;5042534;28;19977;-76
2021/09/01 07:05:54;;;;;;;;;;;;;;;12.26;84.02;97411.91;5056343;28;19969;-76
2021/09/01 07:08:23;;;;;;;;;;;;;;;12.39;83.57;97416.38;5056049;28;19970;-76
2021/09/01 07:10:50;;;;;;;;;;;;;;;12.59;83.29;97413.69;5056469;28;20002;-76
2021/09/01 07:13:16;;;;;;;;;;;;;;;12.78;82.14;97414.66;5054850;28;19988;-77
2021/09/01 07:15:42;;;;;;;;;;;;;;;12.94;81.30;97416.00;5055928;28;20413;-77
2021/09/01 07:18:08;;;;;;;;;;;;;;;12.88;81.77;97414.22;5055950;28;19961;-77
2021/09/01 07:20:34;;;;;;;;;;;;;;;12.86;82.43;97410.97;5055846;28;19954;-77
2021/09/01 07:23:00;;;;;;;;;;;;;;;12.85;82.81;97415.44;5053997;28;19982;-77
2021/09/01 07:25:26;;;;;;;;;;;;;;;12.82;82.55;97415.84;5055678;28;20348;-76
2021/09/01 07:27:52;;;;;;;;;;;;;;;12.75;83.12;97410.59;5053540;28;20038;-77
2021/09/01 07:30:18;;;;;;;;;;;;;;;12.77;83.06;97420.94;5055708;28;20042;-76
2021/09/01 07:32:44;;;;;;;;;;;;;;;12.78;83.27;97417.28;5055730;28;19964;-77
2021/09/01 07:35:10;;;;;;;;;;;;;;;12.82;83.25;97422.94;5055828;28;20361;-77
2021/09/01 07:37:46;;;;;;;;;;;;;;;12.80;83.04;97431.03;5055619;28;20376;-77
2021/09/01 07:40:13;;;;;;;;;;;;;;;12.75;83.54;97436.94;5054809;28;20336;-77
2021/09/01 07:42:39;;;;;;;;;;;;;;;12.74;84.16;97429.22;5055267;28;19955;-77
2021/09/01 07:45:05;;;;;;;;;;;;;;;12.76;84.02;97433.28;5055341;28;19965;-77
2021/09/01 07:47:32;;;;;;;;;;;;;;;12.87;84.29;97442.38;5055381;28;19962;-76
2021/09/01 07:49:58;;;;;;;;;;;;;;;13.02;85.21;97451.81;5055477;28;19962;-75
2021/09/01 07:52:24;;;;;;;;;;;;;;;13.32;86.99;97446.88;5054535;28;20411;-75
2021/09/01 07:54:50;;;;;;;;;;;;;;;13.75;85.48;97448.84;5054187;28;20036;-76
2021/09/01 07:57:16;;;;;;;;;;;;;;;14.09;82.38;97444.13;5055239;28;20001;-75
2021/09/01 07:59:41;;;;;;;;;;;;;;;14.15;79.85;97449.38;5054835;28;20028;-76
2021/09/01 08:02:07;;;;;;;;;;;;;;;14.00;80.39;97454.94;5055699;28;20029;-77
2021/09/01 08:04:33;;;;;;;;;;;;;;;13.97;80.56;97454.59;5054929;28;20458;-77
2021/09/01 08:06:59;;;;;;;;;;;;;;;13.92;80.87;97457.03;5054978;28;19964;-76
2021/09/01 08:09:25;;;;;;;;;;;;;;;13.86;80.68;97449.97;5054483;28;19982;-76
2021/09/01 08:11:51;;;;;;;;;;;;;;;13.94;82.28;97450.56;5054562;28;20504;-77
2021/09/01 08:14:17;;;;;;;;;;;;;;;14.08;82.51;97450.44;5054853;28;20042;-76
2021/09/01 08:16:43;;;;;;;;;;;;;;;14.15;80.61;97448.53;5055266;28;19968;-76
2021/09/01 08:19:09;;;;;;;;;;;;;;;14.10;80.91;97451.03;5054682;28;20009;-76
2021/09/01 08:21:34;;;;;;;;;;;;;;;13.99;81.96;97453.34;5054897;28;20379;-76
2021/09/01 08:24:00;;;;;;;;;;;;;;;14.10;82.24;97457.09;5052655;28;19979;-76
2021/09/01 08:26:26;;;;;;;;;;;;;;;14.21;82.20;97455.59;5054546;28;19969;-76
2021/09/01 08:28:52;;;;;;;;;;;;;;;14.45;81.51;97456.63;5054428;28;20038;-76
2021/09/01 08:31:18;;;;;;;;;;;;;;;14.56;80.57;97453.28;5054531;28;19964;-76
2021/09/01 08:33:45;;;;;;;;;;;;;;;14.84;81.28;97453.81;5054528;28;19983;-76
2021/09/01 08:36:11;;;;;;;;;;;;;;;15.07;80.09;97453.13;5054302;28;19966;-76
2021/09/01 08:38:36;;;;;;;;;;;;;;;15.13;79.39;97454.91;5054394;28;19973;-76
2021/09/01 08:41:02;;;;;;;;;;;;;;;15.20;79.96;97459.09;5054304;28;19955;-77
2021/09/01 08:43:28;;;;;;;;;;;;;;;15.28;79.16;97463.25;5054421;28;19966;-76
2021/09/01 08:45:54;;;;;;;;;;;;;;;15.33;78.77;97466.03;5053314;28;19978;-76
2021/09/01 08:48:21;;;;;;;;;;;;;;;15.37;78.93;97466.38;5053953;28;19976;-76
2021/09/01 08:50:47;;;;;;;;;;;;;;;15.52;79.18;97461.53;5053169;28;19964;-76
2021/09/01 08:53:13;;;;;;;;;;;;;;;15.75;80.18;97458.16;5053935;28;19967;-76
2021/09/01 08:55:39;;;;;;;;;;;;;;;15.97;77.99;97455.78;5054082;28;19972;-77
2021/09/01 08:58:05;;;;;;;;;;;;;;;16.19;78.36;97460.53;5054054;28;20425;-76
2021/09/01 09:00:32;;;;;;;;;;;;;;;16.31;77.48;97453.41;5053974;28;19979;-76
2021/09/01 09:02:59;;;;;;;;;;;;;;;16.30;76.54;97451.81;5053005;28;19955;-76
2021/09/01 09:05:33;;;;;;;;;;;;;;;16.20;77.64;97449.72;5054194;28;19965;-76
2021/09/01 09:07:59;;;;;;;;;;;;;;;16.23;78.25;97446.66;5054074;28;19954;-76
2021/09/01 09:10:24;;;;;;;;;;;;;;;16.36;78.45;97448.25;5052849;28;19969;-77
2021/09/01 09:13:11;;;;;;;;;;;;;;;16.39;79.45;97447.78;5053026;28;19977;-77
2021/09/01 09:15:37;;;;;;;;;;;;;;;16.43;77.68;97442.84;5053463;28;19971;-77
2021/09/01 09:18:04;;;;;;;;;;;;;;;16.48;77.90;97440.28;5054069;28;20346;-76
2021/09/01 09:20:31;;;;;;;;;;;;;;;16.42;78.07;97431.44;5053768;28;19963;-77
2021/09/01 09:22:58;;;;;;;;;;;;;;;16.55;78.83;97438.34;5041310;28;19983;-76
2021/09/01 09:25:25;;;;;;;;;;;;;;;16.66;77.73;97439.38;5053708;28;19969;-76
2021/09/01 09:27:59;;;;;;;;;;;;;;;16.72;78.34;97437.66;5053769;28;19996;-76
2021/09/01 09:30:27;;;;;;;;;;;;;;;16.82;79.32;97435.25;5053011;28;19958;-76
2021/09/01 09:32:57;;;;;;;;;;;;;;;16.91;78.99;97433.03;5053604;28;19959;-76
2021/09/01 09:35:24;;;;;;;;;;;;;;;17.04;77.38;97438.06;5053431;28;19965;-77
2021/09/01 09:38:04;;;;;;;;;;;;;;;17.03;77.29;97437.25;5053629;28;20343;-74
2021/09/01 09:40:30;;;;;;;;;;;;;;;17.10;75.58;97436.31;5053627;28;19975;-74
2021/09/01 09:42:56;;;;;;;;;;;;;;;17.23;77.11;97436.84;5053755;28;19977;-74
2021/09/01 09:45:24;;;;;;;;;;;;;;;17.33;76.56;97435.44;5053281;28;19991;-75
2021/09/01 09:47:51;;;;;;;;;;;;;;;17.33;74.24;97438.09;5053188;28;19965;-77
2021/09/01 09:50:17;;;;;;;;;;;;;;;17.19;74.92;97442.84;5053382;28;20406;-77
2021/09/01 09:52:43;;;;;;;;;;;;;;;17.01;74.92;97444.66;5054108;28;20349;-76
2021/09/01 09:55:16;;;;;;;;;;;;;;;16.90;76.16;97439.34;5052272;28;19972;-77
2021/09/01 09:57:51;;;;;;;;;;;;;;;16.95;75.50;97432.31;5053497;28;19955;-77
2021/09/01 10:00:17;;;;;;;;;;;;;;;17.09;71.33;97426.75;5039909;28;19971;-77
2021/09/01 10:02:45;;;;;;;;;;;;;;;17.14;71.41;97432.16;5055078;28;19963;-76
2021/09/01 10:05:15;;;;;;;;;;;;;;;17.16;66.59;97408.88;5056847;28;19982;-77
2021/09/01 10:07:41;;;;;;;;;;;;;;;17.24;69.45;97425.22;5057385;28;20341;-76
2021/09/01 10:10:08;;;;;;;;;;;;;;;17.43;67.73;97411.78;5057095;28;20445;-76
2021/09/01 10:12:38;;;;;;;;;;;;;;;17.61;68.57;97426.66;5056901;28;19971;-76
2021/09/01 10:15:06;;;;;;;;;;;;;;;17.74;66.23;97413.06;5057149;28;19988;-76
2021/09/01 10:17:33;;;;;;;;;;;;;;;17.89;64.55;97409.09;5057416;28;19970;-76
2021/09/01 10:19:59;;;;;;;;;;;;;;;17.88;65.76;97418.13;5056992;28;20340;-76
2021/09/01 10:22:25;;;;;;;;;;;;;;;17.75;62.33;97403.28;5056719;28;19989;-76
2021/09/01 10:24:52;;;;;;;;;;;;;;;17.85;64.06;97416.75;5056822;28;19989;-76
2021/09/01 10:27:23;;;;;;;;;;;;;;;17.98;64.20;97418.28;5056945;28;19973;-78
2021/09/01 10:29:50;;;;;;;;;;;;;;;18.11;61.38;97387.97;5056047;28;19967;-76
2021/09/01 10:32:16;;;;;;;;;;;;;;;18.35;63.87;97410.63;5056072;28;20413;-77
2021/09/01 10:34:42;;;;;;;;;;;;;;;18.52;59.25;97372.56;5056671;28;19966;-77
2021/09/01 10:37:08;;;;;;;;;;;;;;;18.63;61.60;97387.63;5056653;28;19969;-76
2021/09/01 10:39:35;;;;;;;;;;;;;;;18.73;63.41;97398.38;5056522;28;20446;-76
2021/09/01 10:42:20;;;;;;;;;;;;;;;18.77;56.98;97350.84;5056310;28;19965;-77
2021/09/01 10:44:47;;;;;;;;;;;;;;;18.90;53.77;97312.47;5056156;28;19992;-77
2021/09/01 10:47:13;;;;;;;;;;;;;;;18.99;54.06;97316.31;5056973;28;19969;-76
2021/09/01 10:49:54;;;;;;;;;;;;;;;18.94;55.40;97326.88;5056367;28;19966;-77
2021/09/01 10:52:20;;;;;;;;;;;;;;;18.85;56.70;97356.53;5056140;28;19980;-77
2021/09/01 10:54:46;;;;;;;;;;;;;;;18.92;55.82;97340.44;5056163;28;19977;-77
2021/09/01 10:57:25;;;;;;;;;;;;;;;19.02;53.54;97319.28;5056383;28;20414;-76
2021/09/01 10:59:51;;;;;;;;;;;;;;;19.22;59.23;97363.88;5045034;28;20307;-76
2021/09/01 11:02:19;;;;;;;;;;;;;;;19.40;56.79;97352.06;5056386;28;19977;-77
2021/09/01 11:04:48;;;;;;;;;;;;;;;19.56;53.45;97310.44;5056076;28;19968;-76
2021/09/01 11:07:31;;;;;;;;;;;;;;;19.58;56.16;97350.88;5054999;28;19976;-77
2021/09/01 11:09:58;;;;;;;;;;;;;;;19.71;56.33;97354.22;5056080;28;20461;-76
2021/09/01 11:12:25;;;;;;;;;;;;;;;19.92;55.25;97337.34;5056386;28;19984;-76
2021/09/01 11:14:52;;;;;;;;;;;;;;;19.95;54.23;97338.69;5054985;28;19977;-76
2021/09/01 11:17:22;;;;;;;;;;;;;;;19.95;54.69;97342.16;5055803;28;19977;-77
2021/09/01 11:19:55;;;;;;;;;;;;;;;19.97;56.09;97356.03;5055968;28;19977;-75
2021/09/01 11:22:24;;;;;;;;;;;;;;;19.90;50.20;97351.97;5055977;28;20374;-75
2021/09/01 11:24:52;;;;;;;;;;;;;;;19.82;54.74;97387.84;5055964;28;19996;-75
2021/09/01 11:27:22;;;;;;;;;;;;;;;19.86;53.87;97376.44;5054884;28;19973;-76
2021/09/01 11:29:49;;;;;;;;;;;;;;;19.92;47.42;97345.31;5054844;28;19969;-76
2021/09/01 11:32:16;;;;;;;;;;;;;;;19.90;46.21;97358.09;5055589;28;20362;-76
2021/09/01 11:34:42;;;;;;;;;;;;;;;19.92;49.82;97385.25;5055593;28;19965;-76
2021/09/01 11:37:08;;;;;;;;;;;;;;;20.01;47.28;97367.75;5055713;28;20357;-76
2021/09/01 11:39:40;;;;;;;;;;;;;;;20.10;50.51;97383.28;5055567;28;20015;-76
2021/09/01 11:42:07;;;;;;;;;;;;;;;20.22;44.92;97354.56;5053778;28;19975;-76
2021/09/01 11:44:33;;;;;;;;;;;;;;;20.14;45.44;97353.19;5055037;28;19972;-77
2021/09/01 11:46:59;;;;;;;;;;;;;;;19.99;45.64;97355.75;5055534;28;19962;-77
2021/09/01 11:49:25;;;;;;;;;;;;;;;20.09;50.35;97387.78;5055336;28;19963;-76
2021/09/01 11:51:51;;;;;;;;;;;;;;;20.27;47.05;97367.91;5055306;28;20366;-76
2021/09/01 11:54:17;;;;;;;;;;;;;;;20.36;45.59;97355.72;5055289;28;19986;-76
2021/09/01 11:56:43;;;;;;;;;;;;;;;20.55;51.00;97395.25;5055387;28;19970;-76
2021/09/01 11:59:10;;;;;;;;;;;;;;;20.58;47.22;97368.09;5054881;28;19968;-76
2021/09/01 12:01:47;;;;;;;;;;;;;;;20.53;45.73;97360.84;5055224;28;19970;-76
2021/09/01 12:04:17;;;;;;;;;;;;;;;20.53;48.04;97368.06;5055210;28;20345;-76
2021/09/01 12:06:44;;;;;;;;;;;;;;;20.71;48.24;97364.19;5054796;28;19987;-76
2021/09/01 12:09:14;;;;;;;;;;;;;;;20.68;45.80;97355.66;5054941;28;20005;-76
2021/09/01 12:11:49;;;;;;;;;;;;;;;20.92;50.16;97389.06;5054915;28;20005;-77
2021/09/01 12:14:17;;;;;;;;;;;;;;;20.96;45.22;97358.94;5054896;28;19965;-76
2021/09/01 12:16:43;;;;;;;;;;;;;;;20.88;44.95;97354.91;5054719;28;19976;-76
2021/09/01 12:19:11;;;;;;;;;;;;;;;20.87;45.42;97353.31;5054872;28;20019;-76
2021/09/01 12:21:42;;;;;;;;;;;;;;;20.78;48.48;97370.84;5054261;28;19977;-76
2021/09/01 12:24:12;;;;;;;;;;;;;;;20.63;46.13;97355.59;5054330;28;20018;-76
2021/09/01 12:26:49;;;;;;;;;;;;;;;20.63;47.82;97379.59;5054725;28;19969;-76
2021/09/01 12:29:25;;;;;;;;;;;;;;;20.58;48.44;97368.09;5054494;28;19980;-76
2021/09/01 12:31:52;;;;;;;;;;;;;;;20.77;49.70;97371.94;5054472;28;20354;-76
2021/09/01 12:34:28;;;;;;;;;;;;;;;20.82;51.20;97387.16;5054382;28;19980;-74
2021/09/01 12:36:58;;;;;;;;;;;;;;;20.80;51.73;97386.59;5054300;28;19964;-73
2021/09/01 12:39:24;;;;;;;;;;;;;;;20.74;51.72;97388.44;5054286;28;19969;-76
2021/09/01 12:41:50;;;;;;;;;;;;;;;20.80;52.04;97389.25;5053984;28;19973;-76
2021/09/01 12:44:16;;;;;;;;;;;;;;;20.77;51.34;97379.94;5054419;28;20499;-75
2021/09/01 12:46:43;;;;;;;;;;;;;;;20.97;50.82;97370.41;5054325;28;20040;-76